LESOGEML

Guest
Details From LESO - San_Sebastian
To GEML - MELILLA
Flight Number -
Tags decoded
Created
Modified
Stats Distance 522 nm / 966 km
Max Altitude 0 ft / 0 m
Waypoints 7
Social Downloads 0
Likes 0
Share VATSIM

Download

Looking for another format? Having issues loading an existing format? Contact us
Advertisement - Login to hide

Notes

Requested: LESO GARVU HERMI CJN AMR PEKOP GEML

Route

LESO GARVU HERMI CJN AMR PEKOP GEML

ID Type Via Altitude Latitude Longitude Leg Dist Tot Dist Heading (true) Name
O LESO APT - 0 ft / 0 m 43.35652˚ -1.79061˚ - 0 nm - San_Sebastian
GARVU FIX - 0 ft / 0 m 42.17104˚ -2.07781˚ 72 nm 72 nm 190° / 190° -
HERMI FIX - 0 ft / 0 m 41.47354˚ -2.53329˚ 46 nm 118 nm 206° / 206° -
CJN VOR - 0 ft / 0 m 40.37196˚ -2.54461˚ 66 nm 185 nm 180° / 180° CASTEJON VOR-DME
AMR VOR - 0 ft / 0 m 36.83317˚ -2.25942˚ 212 nm 398 nm 176° / 176° ALMERIA VOR-DME
PEKOP FIX - 0 ft / 0 m 35.83333˚ -3.44083˚ 82 nm 480 nm 224° / 223° -
O GEML APT - 0 ft / 0 m 35.28037˚ -2.95671˚ 40 nm 521 nm 144° / 145° MELILLA

Altitude Profile

Advertisement - Login to hide

Weather


0- 5 10 15 20 25 30 35+ Temperature / ° C

Clouds and Precipitation
Forecast for 2018-05-20 18:00 UTC. Updated 3 hours ago

Ground ~20,000 ft ~40,000 ft Winds

LESO

Details ICAO LESO (EAS)
Name San_Sebastian
Region Spain
Timezone Europe/Madrid (UTC+2.0)
Stats Elevation 14 ft / 4 m (AMSL)
Location 43.356520° -1.790611°
Runways 1
Magnetic Variation 0.244° W

METAR

LESO 201930Z VRB01KT CAVOK 17/14 Q1014

Decode

TAF

TAF LESO 201700Z 2018/2118 34008KT 9000 FEW010 TX25/2114Z TN12/2106Z TEMPO 2020/2108 3000 BR PROB40 TEMPO 2112/2118 SHRA SCT020TCU PROB40 TEMPO 2112/2118 3000 SHRA SCT020CB

Decode

Departure Runways

ID Width Length Bearing (true) Bearing (mag) Surface Threshold Offset Overrun Length
04 148 ft / 45 m 5,762 ft / 1,756 m 38.68° 38.92° Asphalt 0 ft / 0 m 0 ft / 0 m
22 148 ft / 45 m 5,762 ft / 1,756 m 218.69° 218.93° Asphalt 0 ft / 0 m 0 ft / 0 m

GEML

Details ICAO GEML (MLN)
Name MELILLA
Region Ceuta and Melilla
Timezone Africa/Casablanca (UTC+0.0)
Stats Elevation 156 ft / 48 m (AMSL)
Location 35.280374° -2.956708°
Runways 1
Magnetic Variation 0.407° W

METAR

GEML 201930Z AUTO 09005KT 060V120 9999 NCD 18/15 Q1013

Decode

TAF

TAF GEML 201400Z 2015/2115 07007KT 9999 FEW015 TX22/2112Z TN15/2105Z PROB40 TEMPO 2021/2109 BKN012

Decode

Destination Runways

ID Width Length Bearing (true) Bearing (mag) Surface Threshold Offset Overrun Length
15 148 ft / 45 m 4,811 ft / 1,466 m 146.39° 146.80° Asphalt 755 ft / 230 m 0 ft / 0 m
33 148 ft / 45 m 4,811 ft / 1,466 m 326.40° 326.81° Asphalt 0 ft / 0 m 0 ft / 0 m

Popular Alternatives